Back to top

Buffalo, WY weather

Johnson County Airport, Buffalo, WY: 7/02/2020 11:53
Visibility10 statute milesclear sky
View 7-Day Forecast
Area Summary
Sky/CloudsSky Clear
Weather [last 24 hours]None
Pressure30.02 in.Hg (1017 hPa)
3-hour Pressure Tendency0.01181 in.Hg (0.4 hPa) Increasing, then steady, or increasing then increasing more slowly
Dew Point39.9 °F (4.4 °C)
Relative Humidity29.3 %
Temperature73.9 °F (23.3 °C)red thermometer
Reading TimeMinimum to Maximum Temperature
6-hr ending 7/2@11:5355.9 °F to 75.9 °F (13.3 °C to 24.4 °C)
6-hr ending 7/2@05:5357 °F to 66 °F (13.9 °C to 18.9 °C)
6-hr ending 7/1@23:5357.9 °F to 79 °F (14.4 °C to 26.1 °C)
6-hr ending 7/1@17:5371.1 °F to 81 °F (21.7 °C to 27.2 °C)
24-hr ending 7/2@00:5346 °F to 81 °F (7.8 °C to 27.2 °C)
Wind0 MPH (0 KT) green arrow pointing at 0 degrees
Wind FromNorth (000 Degrees)
Rolling 24-hr Peak Wind38 MPH (33 KT) on 7/1@15:33
Rolling 24-hr Peak Wind FromWest/Southwest (250 Degrees)
Twilight Begins04:50Sunshine Yesterday
Sunrise05:26N/A
Sunset20:56
Twilight Ends21:32
METARKBYG 021753Z AUTO 00000KT 10SM CLR 23/04 A3002 RMK AO2 SLP113 T02330044 10244 20133 51004
Tags: